sensor_id;sensor_type;location;lat;lon;timestamp;P1;durP1;ratioP1;P2;durP2;ratioP2
52866;SDS011;38739;53.324;6.862;2022-10-30T00:00:57;27.98;;;13.55;;
52866;SDS011;38739;53.324;6.862;2022-10-30T00:03:23;28.92;;;14.38;;
52866;SDS011;38739;53.324;6.862;2022-10-30T00:05:49;30.83;;;14.27;;
52866;SDS011;38739;53.324;6.862;2022-10-30T00:08:19;29.80;;;13.65;;
52866;SDS011;38739;53.324;6.862;2022-10-30T00:10:46;28.45;;;14.27;;
52866;SDS011;38739;53.324;6.862;2022-10-30T00:13:14;25.77;;;14.02;;
52866;SDS011;38739;53.324;6.862;2022-10-30T00:15:51;28.92;;;13.73;;
52866;SDS011;38739;53.324;6.862;2022-10-30T00:18:18;29.02;;;14.32;;
52866;SDS011;38739;53.324;6.862;2022-10-30T00:20:44;27.75;;;14.88;;
52866;SDS011;38739;53.324;6.862;2022-10-30T00:23:10;23.27;;;15.02;;
52866;SDS011;38739;53.324;6.862;2022-10-30T00:25:36;31.52;;;14.48;;
52866;SDS011;38739;53.324;6.862;2022-10-30T00:28:03;24.10;;;13.73;;
52866;SDS011;38739;53.324;6.862;2022-10-30T00:30:32;27.30;;;12.98;;
52866;SDS011;38739;53.324;6.862;2022-10-30T00:32:58;36.45;;;13.98;;
52866;SDS011;38739;53.324;6.862;2022-10-30T00:35:24;21.77;;;13.45;;
52866;SDS011;38739;53.324;6.862;2022-10-30T00:37:49;27.17;;;13.70;;
52866;SDS011;38739;53.324;6.862;2022-10-30T00:40:15;26.65;;;13.68;;
52866;SDS011;38739;53.324;6.862;2022-10-30T00:42:41;33.42;;;14.35;;
52866;SDS011;38739;53.324;6.862;2022-10-30T00:45:11;30.45;;;14.13;;
52866;SDS011;38739;53.324;6.862;2022-10-30T00:47:39;29.63;;;13.65;;
52866;SDS011;38739;53.324;6.862;2022-10-30T00:50:13;25.13;;;13.52;;
52866;SDS011;38739;53.324;6.862;2022-10-30T00:52:53;27.38;;;13.32;;
52866;SDS011;38739;53.324;6.862;2022-10-30T00:55:25;27.27;;;13.68;;
52866;SDS011;38739;53.324;6.862;2022-10-30T00:57:57;28.30;;;14.07;;
52866;SDS011;38739;53.324;6.862;2022-10-30T01:00:25;26.13;;;12.98;;
52866;SDS011;38739;53.324;6.862;2022-10-30T01:02:52;23.45;;;13.50;;
52866;SDS011;38739;53.324;6.862;2022-10-30T01:05:19;27.23;;;12.90;;
52866;SDS011;38739;53.324;6.862;2022-10-30T01:07:48;33.92;;;13.55;;
52866;SDS011;38739;53.324;6.862;2022-10-30T01:10:14;27.52;;;13.77;;
52866;SDS011;38739;53.324;6.862;2022-10-30T01:12:42;28.63;;;13.55;;
52866;SDS011;38739;53.324;6.862;2022-10-30T01:15:09;24.50;;;13.27;;
52866;SDS011;38739;53.324;6.862;2022-10-30T01:20:17;30.17;;;13.32;;
52866;SDS011;38739;53.324;6.862;2022-10-30T01:22:58;24.65;;;13.50;;
52866;SDS011;38739;53.324;6.862;2022-10-30T01:28:17;26.85;;;14.07;;
52866;SDS011;38739;53.324;6.862;2022-10-30T01:38:52;27.70;;;13.32;;
52866;SDS011;38739;53.324;6.862;2022-10-30T01:41:23;28.92;;;13.98;;
52866;SDS011;38739;53.324;6.862;2022-10-30T01:43:50;28.67;;;13.23;;
52866;SDS011;38739;53.324;6.862;2022-10-30T01:49:01;29.73;;;13.95;;
52866;SDS011;38739;53.324;6.862;2022-10-30T01:54:26;29.35;;;13.43;;
52866;SDS011;38739;53.324;6.862;2022-10-30T01:59:43;34.47;;;13.70;;
52866;SDS011;38739;53.324;6.862;2022-10-30T02:02:11;23.42;;;14.45;;
52866;SDS011;38739;53.324;6.862;2022-10-30T02:04:37;34.83;;;14.93;;
52866;SDS011;38739;53.324;6.862;2022-10-30T02:07:04;25.02;;;13.35;;
52866;SDS011;38739;53.324;6.862;2022-10-30T02:09:29;27.23;;;14.02;;
52866;SDS011;38739;53.324;6.862;2022-10-30T02:11:55;27.15;;;14.05;;
52866;SDS011;38739;53.324;6.862;2022-10-30T02:14:23;26.27;;;13.93;;
52866;SDS011;38739;53.324;6.862;2022-10-30T02:16:54;27.73;;;14.20;;
52866;SDS011;38739;53.324;6.862;2022-10-30T02:19:22;28.75;;;14.38;;
52866;SDS011;38739;53.324;6.862;2022-10-30T02:21:48;25.05;;;13.98;;
52866;SDS011;38739;53.324;6.862;2022-10-30T02:24:15;25.05;;;14.02;;
52866;SDS011;38739;53.324;6.862;2022-10-30T02:26:40;24.23;;;13.80;;
52866;SDS011;38739;53.324;6.862;2022-10-30T02:29:06;28.80;;;13.85;;
52866;SDS011;38739;53.324;6.862;2022-10-30T02:31:32;27.80;;;14.13;;
52866;SDS011;38739;53.324;6.862;2022-10-30T02:33:58;29.63;;;14.15;;
52866;SDS011;38739;53.324;6.862;2022-10-30T02:36:23;25.08;;;13.50;;
52866;SDS011;38739;53.324;6.862;2022-10-30T02:38:49;29.88;;;14.80;;
52866;SDS011;38739;53.324;6.862;2022-10-30T02:41:15;30.90;;;14.35;;
52866;SDS011;38739;53.324;6.862;2022-10-30T02:43:40;31.17;;;14.73;;
52866;SDS011;38739;53.324;6.862;2022-10-30T02:46:06;28.40;;;13.90;;
52866;SDS011;38739;53.324;6.862;2022-10-30T02:48:32;33.70;;;15.05;;
52866;SDS011;38739;53.324;6.862;2022-10-30T02:50:58;26.98;;;13.82;;
52866;SDS011;38739;53.324;6.862;2022-10-30T02:53:25;24.20;;;13.38;;
52866;SDS011;38739;53.324;6.862;2022-10-30T02:55:51;25.70;;;13.52;;
52866;SDS011;38739;53.324;6.862;2022-10-30T02:58:16;23.33;;;14.07;;
52866;SDS011;38739;53.324;6.862;2022-10-30T03:00:42;29.52;;;13.57;;
52866;SDS011;38739;53.324;6.862;2022-10-30T03:03:08;28.75;;;13.85;;
52866;SDS011;38739;53.324;6.862;2022-10-30T03:05:33;30.98;;;13.75;;
52866;SDS011;38739;53.324;6.862;2022-10-30T03:07:59;23.58;;;13.65;;
52866;SDS011;38739;53.324;6.862;2022-10-30T03:10:25;30.48;;;14.27;;
52866;SDS011;38739;53.324;6.862;2022-10-30T03:12:51;29.13;;;13.80;;
52866;SDS011;38739;53.324;6.862;2022-10-30T03:15:16;27.33;;;14.50;;
52866;SDS011;38739;53.324;6.862;2022-10-30T03:17:42;24.20;;;12.88;;
52866;SDS011;38739;53.324;6.862;2022-10-30T03:20:08;27.42;;;13.93;;
52866;SDS011;38739;53.324;6.862;2022-10-30T03:22:34;24.30;;;13.93;;
52866;SDS011;38739;53.324;6.862;2022-10-30T03:25:00;27.23;;;13.65;;
52866;SDS011;38739;53.324;6.862;2022-10-30T03:27:25;28.08;;;12.95;;
52866;SDS011;38739;53.324;6.862;2022-10-30T03:29:51;28.08;;;12.90;;
52866;SDS011;38739;53.324;6.862;2022-10-30T03:32:17;28.13;;;13.35;;
52866;SDS011;38739;53.324;6.862;2022-10-30T03:34:42;27.92;;;14.15;;
52866;SDS011;38739;53.324;6.862;2022-10-30T03:37:08;25.25;;;12.60;;
52866;SDS011;38739;53.324;6.862;2022-10-30T03:39:33;32.00;;;14.80;;
52866;SDS011;38739;53.324;6.862;2022-10-30T03:41:59;27.17;;;13.63;;
52866;SDS011;38739;53.324;6.862;2022-10-30T03:44:25;23.55;;;13.38;;
52866;SDS011;38739;53.324;6.862;2022-10-30T03:46:50;30.02;;;13.80;;
52866;SDS011;38739;53.324;6.862;2022-10-30T03:49:16;30.33;;;13.65;;
52866;SDS011;38739;53.324;6.862;2022-10-30T03:51:42;26.00;;;13.50;;
52866;SDS011;38739;53.324;6.862;2022-10-30T03:54:07;27.17;;;13.80;;
52866;SDS011;38739;53.324;6.862;2022-10-30T03:56:33;28.85;;;14.00;;
52866;SDS011;38739;53.324;6.862;2022-10-30T03:58:59;30.45;;;13.77;;
52866;SDS011;38739;53.324;6.862;2022-10-30T04:01:24;25.40;;;13.57;;
52866;SDS011;38739;53.324;6.862;2022-10-30T04:03:50;28.20;;;13.88;;
52866;SDS011;38739;53.324;6.862;2022-10-30T04:06:16;27.98;;;14.10;;
52866;SDS011;38739;53.324;6.862;2022-10-30T04:08:41;28.02;;;14.52;;
52866;SDS011;38739;53.324;6.862;2022-10-30T04:11:08;28.05;;;13.75;;
52866;SDS011;38739;53.324;6.862;2022-10-30T04:13:35;25.90;;;13.23;;
52866;SDS011;38739;53.324;6.862;2022-10-30T04:16:01;29.30;;;14.07;;
52866;SDS011;38739;53.324;6.862;2022-10-30T04:18:27;29.90;;;14.23;;
52866;SDS011;38739;53.324;6.862;2022-10-30T04:20:54;35.72;;;14.55;;
52866;SDS011;38739;53.324;6.862;2022-10-30T04:23:22;29.58;;;14.13;;
52866;SDS011;38739;53.324;6.862;2022-10-30T04:25:48;30.10;;;14.13;;
52866;SDS011;38739;53.324;6.862;2022-10-30T04:28:14;30.58;;;14.15;;
52866;SDS011;38739;53.324;6.862;2022-10-30T04:30:40;28.15;;;14.18;;
52866;SDS011;38739;53.324;6.862;2022-10-30T04:33:06;23.90;;;14.07;;
52866;SDS011;38739;53.324;6.862;2022-10-30T04:35:35;28.98;;;14.60;;
52866;SDS011;38739;53.324;6.862;2022-10-30T04:38:02;27.52;;;14.63;;
52866;SDS011;38739;53.324;6.862;2022-10-30T04:40:31;31.60;;;14.73;;
52866;SDS011;38739;53.324;6.862;2022-10-30T04:42:58;31.42;;;14.20;;
52866;SDS011;38739;53.324;6.862;2022-10-30T04:45:24;25.15;;;14.18;;
52866;SDS011;38739;53.324;6.862;2022-10-30T04:47:50;29.67;;;14.85;;
52866;SDS011;38739;53.324;6.862;2022-10-30T04:50:16;28.45;;;14.60;;
52866;SDS011;38739;53.324;6.862;2022-10-30T04:52:42;27.75;;;15.20;;
52866;SDS011;38739;53.324;6.862;2022-10-30T04:55:08;27.17;;;14.73;;
52866;SDS011;38739;53.324;6.862;2022-10-30T04:57:36;30.58;;;14.90;;
52866;SDS011;38739;53.324;6.862;2022-10-30T05:00:05;24.05;;;14.00;;
52866;SDS011;38739;53.324;6.862;2022-10-30T05:02:35;28.30;;;13.88;;
52866;SDS011;38739;53.324;6.862;2022-10-30T05:05:01;30.13;;;14.95;;
52866;SDS011;38739;53.324;6.862;2022-10-30T05:07:28;30.05;;;15.02;;
52866;SDS011;38739;53.324;6.862;2022-10-30T05:09:53;28.77;;;14.18;;
52866;SDS011;38739;53.324;6.862;2022-10-30T05:12:19;28.58;;;14.82;;
52866;SDS011;38739;53.324;6.862;2022-10-30T05:14:46;24.80;;;14.88;;
52866;SDS011;38739;53.324;6.862;2022-10-30T05:17:12;32.72;;;15.23;;
52866;SDS011;38739;53.324;6.862;2022-10-30T05:19:37;27.80;;;14.90;;
52866;SDS011;38739;53.324;6.862;2022-10-30T05:22:03;31.33;;;15.38;;
52866;SDS011;38739;53.324;6.862;2022-10-30T05:24:29;31.27;;;15.15;;
52866;SDS011;38739;53.324;6.862;2022-10-30T05:26:54;29.88;;;14.50;;
52866;SDS011;38739;53.324;6.862;2022-10-30T05:29:20;27.05;;;15.13;;
52866;SDS011;38739;53.324;6.862;2022-10-30T05:31:45;30.35;;;15.35;;
52866;SDS011;38739;53.324;6.862;2022-10-30T05:34:11;34.08;;;15.50;;
52866;SDS011;38739;53.324;6.862;2022-10-30T05:36:37;29.33;;;15.98;;
52866;SDS011;38739;53.324;6.862;2022-10-30T05:39:02;29.73;;;15.88;;
52866;SDS011;38739;53.324;6.862;2022-10-30T05:41:28;32.40;;;16.75;;
52866;SDS011;38739;53.324;6.862;2022-10-30T05:43:54;26.00;;;15.13;;
52866;SDS011;38739;53.324;6.862;2022-10-30T05:46:20;28.80;;;15.63;;
52866;SDS011;38739;53.324;6.862;2022-10-30T05:48:46;29.50;;;15.27;;
52866;SDS011;38739;53.324;6.862;2022-10-30T05:51:12;29.35;;;15.23;;
52866;SDS011;38739;53.324;6.862;2022-10-30T05:53:37;38.13;;;16.65;;
52866;SDS011;38739;53.324;6.862;2022-10-30T05:56:03;34.13;;;16.48;;
52866;SDS011;38739;53.324;6.862;2022-10-30T05:58:29;27.15;;;14.90;;
52866;SDS011;38739;53.324;6.862;2022-10-30T06:00:54;31.48;;;15.43;;
52866;SDS011;38739;53.324;6.862;2022-10-30T06:03:20;37.15;;;16.30;;
52866;SDS011;38739;53.324;6.862;2022-10-30T06:05:46;31.20;;;15.48;;
52866;SDS011;38739;53.324;6.862;2022-10-30T06:08:12;30.13;;;15.73;;
52866;SDS011;38739;53.324;6.862;2022-10-30T06:10:40;28.80;;;15.38;;
52866;SDS011;38739;53.324;6.862;2022-10-30T06:13:06;28.75;;;16.15;;
52866;SDS011;38739;53.324;6.862;2022-10-30T06:15:34;30.02;;;15.30;;
52866;SDS011;38739;53.324;6.862;2022-10-30T06:17:59;31.90;;;16.23;;
52866;SDS011;38739;53.324;6.862;2022-10-30T06:20:26;36.70;;;15.73;;
52866;SDS011;38739;53.324;6.862;2022-10-30T06:25:26;32.33;;;15.95;;
52866;SDS011;38739;53.324;6.862;2022-10-30T06:27:53;27.13;;;16.15;;
52866;SDS011;38739;53.324;6.862;2022-10-30T06:30:19;32.08;;;17.05;;
52866;SDS011;38739;53.324;6.862;2022-10-30T06:32:46;30.77;;;16.40;;
52866;SDS011;38739;53.324;6.862;2022-10-30T06:35:12;35.22;;;17.75;;
52866;SDS011;38739;53.324;6.862;2022-10-30T06:37:43;30.77;;;16.20;;
52866;SDS011;38739;53.324;6.862;2022-10-30T06:42:45;38.55;;;16.27;;
52866;SDS011;38739;53.324;6.862;2022-10-30T06:45:13;33.33;;;16.90;;
52866;SDS011;38739;53.324;6.862;2022-10-30T06:47:40;34.90;;;17.58;;
52866;SDS011;38739;53.324;6.862;2022-10-30T06:50:07;29.98;;;16.52;;
52866;SDS011;38739;53.324;6.862;2022-10-30T06:52:35;30.88;;;15.65;;
52866;SDS011;38739;53.324;6.862;2022-10-30T06:55:00;29.15;;;17.10;;
52866;SDS011;38739;53.324;6.862;2022-10-30T06:57:26;33.28;;;17.30;;
52866;SDS011;38739;53.324;6.862;2022-10-30T06:59:52;34.78;;;17.42;;
52866;SDS011;38739;53.324;6.862;2022-10-30T07:02:17;36.45;;;17.02;;
52866;SDS011;38739;53.324;6.862;2022-10-30T07:04:43;37.33;;;16.73;;
52866;SDS011;38739;53.324;6.862;2022-10-30T07:07:15;32.03;;;17.05;;
52866;SDS011;38739;53.324;6.862;2022-10-30T07:09:41;33.15;;;16.95;;
52866;SDS011;38739;53.324;6.862;2022-10-30T07:12:07;40.17;;;17.88;;
52866;SDS011;38739;53.324;6.862;2022-10-30T07:14:33;30.05;;;17.15;;
52866;SDS011;38739;53.324;6.862;2022-10-30T07:16:59;31.13;;;17.20;;
52866;SDS011;38739;53.324;6.862;2022-10-30T07:19:25;35.13;;;17.20;;
52866;SDS011;38739;53.324;6.862;2022-10-30T07:21:51;35.67;;;17.50;;
52866;SDS011;38739;53.324;6.862;2022-10-30T07:24:16;35.20;;;17.55;;
52866;SDS011;38739;53.324;6.862;2022-10-30T07:26:42;33.78;;;16.55;;
52866;SDS011;38739;53.324;6.862;2022-10-30T07:29:08;31.65;;;18.08;;
52866;SDS011;38739;53.324;6.862;2022-10-30T07:31:33;40.15;;;17.50;;
52866;SDS011;38739;53.324;6.862;2022-10-30T07:33:59;30.20;;;16.90;;
52866;SDS011;38739;53.324;6.862;2022-10-30T07:36:25;33.55;;;18.10;;
52866;SDS011;38739;53.324;6.862;2022-10-30T07:38:51;33.55;;;17.38;;
52866;SDS011;38739;53.324;6.862;2022-10-30T07:41:17;33.17;;;17.33;;
52866;SDS011;38739;53.324;6.862;2022-10-30T07:43:44;32.33;;;17.17;;
52866;SDS011;38739;53.324;6.862;2022-10-30T07:46:10;33.13;;;18.10;;
52866;SDS011;38739;53.324;6.862;2022-10-30T07:48:36;34.38;;;17.42;;
52866;SDS011;38739;53.324;6.862;2022-10-30T07:51:01;34.97;;;17.70;;
52866;SDS011;38739;53.324;6.862;2022-10-30T07:53:28;31.75;;;17.27;;
52866;SDS011;38739;53.324;6.862;2022-10-30T07:55:54;31.88;;;17.60;;
52866;SDS011;38739;53.324;6.862;2022-10-30T07:58:23;35.30;;;18.08;;
52866;SDS011;38739;53.324;6.862;2022-10-30T08:00:49;32.97;;;17.23;;
52866;SDS011;38739;53.324;6.862;2022-10-30T08:03:15;35.58;;;18.42;;
52866;SDS011;38739;53.324;6.862;2022-10-30T08:05:41;30.95;;;16.92;;
52866;SDS011;38739;53.324;6.862;2022-10-30T08:08:07;32.08;;;16.90;;
52866;SDS011;38739;53.324;6.862;2022-10-30T08:10:33;36.72;;;17.67;;
52866;SDS011;38739;53.324;6.862;2022-10-30T08:12:59;33.42;;;17.98;;
52866;SDS011;38739;53.324;6.862;2022-10-30T08:15:25;38.88;;;17.25;;
52866;SDS011;38739;53.324;6.862;2022-10-30T08:17:51;33.45;;;17.92;;
52866;SDS011;38739;53.324;6.862;2022-10-30T08:20:18;30.30;;;16.52;;
52866;SDS011;38739;53.324;6.862;2022-10-30T08:22:46;31.35;;;16.98;;
52866;SDS011;38739;53.324;6.862;2022-10-30T08:25:14;32.67;;;17.23;;
52866;SDS011;38739;53.324;6.862;2022-10-30T08:27:50;32.13;;;17.75;;
52866;SDS011;38739;53.324;6.862;2022-10-30T08:30:16;30.50;;;16.98;;
52866;SDS011;38739;53.324;6.862;2022-10-30T08:32:42;32.05;;;17.13;;
52866;SDS011;38739;53.324;6.862;2022-10-30T08:35:08;31.55;;;17.25;;
52866;SDS011;38739;53.324;6.862;2022-10-30T08:37:34;32.90;;;16.67;;
52866;SDS011;38739;53.324;6.862;2022-10-30T08:39:59;35.78;;;17.65;;
52866;SDS011;38739;53.324;6.862;2022-10-30T08:42:25;33.45;;;17.00;;
52866;SDS011;38739;53.324;6.862;2022-10-30T08:44:51;35.03;;;17.58;;
52866;SDS011;38739;53.324;6.862;2022-10-30T08:47:17;33.97;;;17.02;;
52866;SDS011;38739;53.324;6.862;2022-10-30T08:49:43;32.33;;;16.75;;
52866;SDS011;38739;53.324;6.862;2022-10-30T08:52:09;28.80;;;16.83;;
52866;SDS011;38739;53.324;6.862;2022-10-30T08:54:35;37.15;;;17.13;;
52866;SDS011;38739;53.324;6.862;2022-10-30T08:57:00;32.72;;;17.73;;
52866;SDS011;38739;53.324;6.862;2022-10-30T08:59:26;32.65;;;16.85;;
52866;SDS011;38739;53.324;6.862;2022-10-30T09:01:52;29.08;;;16.25;;
52866;SDS011;38739;53.324;6.862;2022-10-30T09:04:18;36.75;;;17.70;;
52866;SDS011;38739;53.324;6.862;2022-10-30T09:06:43;28.80;;;15.88;;
52866;SDS011;38739;53.324;6.862;2022-10-30T09:09:09;31.38;;;16.52;;
52866;SDS011;38739;53.324;6.862;2022-10-30T09:11:36;30.65;;;16.63;;
52866;SDS011;38739;53.324;6.862;2022-10-30T09:14:01;33.53;;;16.23;;
52866;SDS011;38739;53.324;6.862;2022-10-30T09:16:27;28.92;;;16.58;;
52866;SDS011;38739;53.324;6.862;2022-10-30T09:18:53;29.30;;;16.23;;
52866;SDS011;38739;53.324;6.862;2022-10-30T09:21:19;30.63;;;16.02;;
52866;SDS011;38739;53.324;6.862;2022-10-30T09:23:44;33.10;;;15.73;;
52866;SDS011;38739;53.324;6.862;2022-10-30T09:26:10;24.98;;;15.13;;
52866;SDS011;38739;53.324;6.862;2022-10-30T09:28:36;26.10;;;15.00;;
52866;SDS011;38739;53.324;6.862;2022-10-30T09:31:02;23.95;;;14.25;;
52866;SDS011;38739;53.324;6.862;2022-10-30T09:33:28;25.60;;;13.65;;
52866;SDS011;38739;53.324;6.862;2022-10-30T09:35:54;26.75;;;13.05;;
52866;SDS011;38739;53.324;6.862;2022-10-30T09:38:19;27.30;;;12.68;;
52866;SDS011;38739;53.324;6.862;2022-10-30T09:43:46;20.42;;;11.48;;
52866;SDS011;38739;53.324;6.862;2022-10-30T09:46:33;21.13;;;11.85;;
52866;SDS011;38739;53.324;6.862;2022-10-30T09:52:05;19.38;;;11.40;;
52866;SDS011;38739;53.324;6.862;2022-10-30T10:00:11;22.92;;;11.43;;
52866;SDS011;38739;53.324;6.862;2022-10-30T10:05:31;19.17;;;10.88;;
52866;SDS011;38739;53.324;6.862;2022-10-30T10:08:13;20.30;;;10.00;;
52866;SDS011;38739;53.324;6.862;2022-10-30T10:10:53;20.05;;;10.73;;
52866;SDS011;38739;53.324;6.862;2022-10-30T10:16:11;18.88;;;10.73;;
52866;SDS011;38739;53.324;6.862;2022-10-30T10:18:46;18.47;;;10.17;;
52866;SDS011;38739;53.324;6.862;2022-10-30T10:21:26;17.73;;;9.38;;
52866;SDS011;38739;53.324;6.862;2022-10-30T10:24:02;20.80;;;10.38;;
52866;SDS011;38739;53.324;6.862;2022-10-30T10:37:33;18.85;;;9.40;;
52866;SDS011;38739;53.324;6.862;2022-10-30T10:40:17;22.42;;;9.95;;
52866;SDS011;38739;53.324;6.862;2022-10-30T10:43:12;21.00;;;9.55;;
52866;SDS011;38739;53.324;6.862;2022-10-30T10:51:16;21.80;;;9.93;;
52866;SDS011;38739;53.324;6.862;2022-10-30T10:54:18;16.77;;;8.68;;
52866;SDS011;38739;53.324;6.862;2022-10-30T10:56:51;20.70;;;9.27;;
52866;SDS011;38739;53.324;6.862;2022-10-30T10:59:19;16.92;;;8.93;;
52866;SDS011;38739;53.324;6.862;2022-10-30T11:04:41;18.00;;;9.25;;
52866;SDS011;38739;53.324;6.862;2022-10-30T11:09:42;17.45;;;8.27;;
52866;SDS011;38739;53.324;6.862;2022-10-30T11:12:08;15.45;;;7.50;;
52866;SDS011;38739;53.324;6.862;2022-10-30T11:14:34;16.67;;;8.15;;
52866;SDS011;38739;53.324;6.862;2022-10-30T11:19:36;19.00;;;8.27;;
52866;SDS011;38739;53.324;6.862;2022-10-30T11:22:02;15.60;;;6.88;;
52866;SDS011;38739;53.324;6.862;2022-10-30T11:24:35;14.38;;;6.88;;
52866;SDS011;38739;53.324;6.862;2022-10-30T11:32:25;18.13;;;7.80;;
52866;SDS011;38739;53.324;6.862;2022-10-30T11:34:59;17.23;;;7.15;;
52866;SDS011;38739;53.324;6.862;2022-10-30T11:37:37;16.80;;;7.18;;
52866;SDS011;38739;53.324;6.862;2022-10-30T11:42:46;15.35;;;6.65;;
52866;SDS011;38739;53.324;6.862;2022-10-30T11:45:30;15.20;;;7.18;;
52866;SDS011;38739;53.324;6.862;2022-10-30T11:47:59;15.35;;;7.65;;
52866;SDS011;38739;53.324;6.862;2022-10-30T11:50:27;15.85;;;7.15;;
52866;SDS011;38739;53.324;6.862;2022-10-30T11:52:55;17.02;;;7.05;;
52866;SDS011;38739;53.324;6.862;2022-10-30T11:57:56;15.77;;;6.85;;
52866;SDS011;38739;53.324;6.862;2022-10-30T12:00:23;16.55;;;6.82;;
52866;SDS011;38739;53.324;6.862;2022-10-30T12:02:55;18.50;;;6.50;;
52866;SDS011;38739;53.324;6.862;2022-10-30T12:07:53;16.73;;;6.63;;
52866;SDS011;38739;53.324;6.862;2022-10-30T12:13:14;17.08;;;7.53;;
52866;SDS011;38739;53.324;6.862;2022-10-30T12:15:42;15.70;;;7.00;;
52866;SDS011;38739;53.324;6.862;2022-10-30T12:18:20;19.23;;;8.40;;
52866;SDS011;38739;53.324;6.862;2022-10-30T12:20:54;19.40;;;7.88;;
52866;SDS011;38739;53.324;6.862;2022-10-30T12:23:22;20.67;;;7.18;;
52866;SDS011;38739;53.324;6.862;2022-10-30T12:28:50;17.25;;;7.68;;
52866;SDS011;38739;53.324;6.862;2022-10-30T12:31:29;17.08;;;7.90;;
52866;SDS011;38739;53.324;6.862;2022-10-30T12:36:35;14.68;;;7.07;;
52866;SDS011;38739;53.324;6.862;2022-10-30T12:39:27;16.52;;;7.85;;
52866;SDS011;38739;53.324;6.862;2022-10-30T12:42:15;20.80;;;7.78;;
52866;SDS011;38739;53.324;6.862;2022-10-30T12:44:46;15.82;;;7.70;;
52866;SDS011;38739;53.324;6.862;2022-10-30T12:52:36;14.02;;;7.43;;
52866;SDS011;38739;53.324;6.862;2022-10-30T12:58:20;17.15;;;7.53;;
52866;SDS011;38739;53.324;6.862;2022-10-30T13:01:12;16.92;;;7.50;;
52866;SDS011;38739;53.324;6.862;2022-10-30T13:03:36;15.82;;;7.30;;
52866;SDS011;38739;53.324;6.862;2022-10-30T13:06:18;16.58;;;7.65;;
52866;SDS011;38739;53.324;6.862;2022-10-30T13:14:10;17.27;;;7.72;;
52866;SDS011;38739;53.324;6.862;2022-10-30T13:16:40;20.85;;;9.00;;
52866;SDS011;38739;53.324;6.862;2022-10-30T13:19:10;22.13;;;10.50;;
52866;SDS011;38739;53.324;6.862;2022-10-30T13:21:48;23.45;;;10.48;;
52866;SDS011;38739;53.324;6.862;2022-10-30T13:24:33;22.63;;;10.90;;
52866;SDS011;38739;53.324;6.862;2022-10-30T13:27:12;19.80;;;10.00;;
52866;SDS011;38739;53.324;6.862;2022-10-30T13:30:00;19.73;;;10.50;;
52866;SDS011;38739;53.324;6.862;2022-10-30T13:35:01;19.83;;;10.80;;
52866;SDS011;38739;53.324;6.862;2022-10-30T13:37:57;21.85;;;10.75;;
52866;SDS011;38739;53.324;6.862;2022-10-30T13:40:53;21.83;;;11.43;;
52866;SDS011;38739;53.324;6.862;2022-10-30T13:43:40;20.35;;;9.75;;
52866;SDS011;38739;53.324;6.862;2022-10-30T13:49:38;22.33;;;10.38;;
52866;SDS011;38739;53.324;6.862;2022-10-30T13:52:36;21.25;;;9.63;;
52866;SDS011;38739;53.324;6.862;2022-10-30T13:55:06;22.55;;;9.98;;
52866;SDS011;38739;53.324;6.862;2022-10-30T14:00:29;21.50;;;9.98;;
52866;SDS011;38739;53.324;6.862;2022-10-30T14:11:19;21.42;;;10.10;;
52866;SDS011;38739;53.324;6.862;2022-10-30T14:13:55;18.42;;;10.60;;
52866;SDS011;38739;53.324;6.862;2022-10-30T14:24:29;20.23;;;10.98;;
52866;SDS011;38739;53.324;6.862;2022-10-30T14:29:28;20.10;;;9.88;;
52866;SDS011;38739;53.324;6.862;2022-10-30T14:31:58;20.13;;;10.10;;
52866;SDS011;38739;53.324;6.862;2022-10-30T14:37:16;17.08;;;9.90;;
52866;SDS011;38739;53.324;6.862;2022-10-30T14:42:56;23.67;;;9.45;;
52866;SDS011;38739;53.324;6.862;2022-10-30T14:45:44;20.35;;;9.75;;
52866;SDS011;38739;53.324;6.862;2022-10-30T14:53:33;17.63;;;9.48;;
52866;SDS011;38739;53.324;6.862;2022-10-30T14:56:30;21.77;;;10.13;;
52866;SDS011;38739;53.324;6.862;2022-10-30T15:04:18;18.58;;;9.68;;
52866;SDS011;38739;53.324;6.862;2022-10-30T15:06:52;17.85;;;9.73;;
52866;SDS011;38739;53.324;6.862;2022-10-30T15:09:47;22.85;;;12.77;;
52866;SDS011;38739;53.324;6.862;2022-10-30T15:12:26;23.38;;;11.63;;
52866;SDS011;38739;53.324;6.862;2022-10-30T15:15:03;27.23;;;12.32;;
52866;SDS011;38739;53.324;6.862;2022-10-30T15:17:38;24.33;;;11.98;;
52866;SDS011;38739;53.324;6.862;2022-10-30T15:22:32;17.60;;;10.57;;
52866;SDS011;38739;53.324;6.862;2022-10-30T15:25:00;23.05;;;11.77;;
52866;SDS011;38739;53.324;6.862;2022-10-30T15:27:27;18.33;;;11.55;;
52866;SDS011;38739;53.324;6.862;2022-10-30T15:30:00;20.63;;;11.18;;
52866;SDS011;38739;53.324;6.862;2022-10-30T15:32:28;22.38;;;12.02;;
52866;SDS011;38739;53.324;6.862;2022-10-30T15:35:00;22.70;;;11.27;;
52866;SDS011;38739;53.324;6.862;2022-10-30T15:37:29;21.80;;;11.50;;
52866;SDS011;38739;53.324;6.862;2022-10-30T15:40:15;20.20;;;11.52;;
52866;SDS011;38739;53.324;6.862;2022-10-30T15:42:45;22.95;;;11.75;;
52866;SDS011;38739;53.324;6.862;2022-10-30T15:45:17;18.88;;;11.57;;
52866;SDS011;38739;53.324;6.862;2022-10-30T15:48:01;18.00;;;11.82;;
52866;SDS011;38739;53.324;6.862;2022-10-30T15:50:54;25.52;;;12.65;;
52866;SDS011;38739;53.324;6.862;2022-10-30T15:53:46;25.27;;;15.30;;
52866;SDS011;38739;53.324;6.862;2022-10-30T15:56:30;24.63;;;15.70;;
52866;SDS011;38739;53.324;6.862;2022-10-30T15:59:02;31.52;;;20.55;;
52866;SDS011;38739;53.324;6.862;2022-10-30T16:04:11;34.92;;;20.40;;
52866;SDS011;38739;53.324;6.862;2022-10-30T16:06:53;30.98;;;19.10;;
52866;SDS011;38739;53.324;6.862;2022-10-30T16:09:20;26.55;;;17.70;;
52866;SDS011;38739;53.324;6.862;2022-10-30T16:11:48;29.15;;;18.50;;
52866;SDS011;38739;53.324;6.862;2022-10-30T16:14:17;31.92;;;21.98;;
52866;SDS011;38739;53.324;6.862;2022-10-30T16:16:48;33.53;;;24.08;;
52866;SDS011;38739;53.324;6.862;2022-10-30T16:19:21;40.78;;;30.60;;
52866;SDS011;38739;53.324;6.862;2022-10-30T16:21:51;50.45;;;31.50;;
52866;SDS011;38739;53.324;6.862;2022-10-30T16:24:18;45.58;;;30.60;;
52866;SDS011;38739;53.324;6.862;2022-10-30T16:26:59;32.20;;;23.85;;
52866;SDS011;38739;53.324;6.862;2022-10-30T16:29:30;35.33;;;21.25;;
52866;SDS011;38739;53.324;6.862;2022-10-30T16:31:57;28.85;;;20.60;;
52866;SDS011;38739;53.324;6.862;2022-10-30T16:34:25;34.15;;;19.70;;
52866;SDS011;38739;53.324;6.862;2022-10-30T16:36:56;33.10;;;19.37;;
52866;SDS011;38739;53.324;6.862;2022-10-30T16:39:22;27.77;;;18.52;;
52866;SDS011;38739;53.324;6.862;2022-10-30T16:41:49;31.25;;;19.48;;
52866;SDS011;38739;53.324;6.862;2022-10-30T16:44:17;30.83;;;19.38;;
52866;SDS011;38739;53.324;6.862;2022-10-30T16:49:30;31.08;;;18.63;;
52866;SDS011;38739;53.324;6.862;2022-10-30T16:52:01;33.58;;;18.13;;
52866;SDS011;38739;53.324;6.862;2022-10-30T16:54:34;26.10;;;17.20;;
52866;SDS011;38739;53.324;6.862;2022-10-30T16:57:03;29.55;;;18.15;;
52866;SDS011;38739;53.324;6.862;2022-10-30T16:59:53;29.45;;;17.88;;
52866;SDS011;38739;53.324;6.862;2022-10-30T17:02:28;27.13;;;16.98;;
52866;SDS011;38739;53.324;6.862;2022-10-30T17:05:09;28.08;;;16.85;;
52866;SDS011;38739;53.324;6.862;2022-10-30T17:07:52;23.27;;;15.98;;
52866;SDS011;38739;53.324;6.862;2022-10-30T17:10:33;32.22;;;18.38;;
52866;SDS011;38739;53.324;6.862;2022-10-30T17:13:30;29.08;;;18.15;;